Time;durP1;ratioP1;P1;durP2;ratioP2;P2;SDS_P1;SDS_P2;PMS_P1;PMS_P2;Temp;Humidity;BMP_temperature;BMP_pressure;BME280_temperature;BME280_humidity;BME280_pressure;Samples;Min_cycle;Max_cycle;Signal;HPM_P1;HPM_P2
2022/11/27 05:04:21;;;;;;;7.72;4.38;;;-0.10;99.90;;;;;;5691843;23;20264;-62
2022/11/27 05:06:47;;;;;;;5.30;4.68;;;-0.20;99.90;;;;;;4955085;29;20184;-67
2022/11/27 05:09:12;;;;;;;5.73;4.70;;;-0.20;99.90;;;;;;4955409;29;20179;-68
2022/11/27 05:11:38;;;;;;;3.87;3.67;;;-0.20;99.90;;;;;;4955369;29;20180;-67
2022/11/27 05:14:21;;;;;;;4.83;4.43;;;-0.30;99.90;;;;;;4954694;28;20192;-65
2022/11/27 05:16:52;;;;;;;5.60;4.38;;;-0.30;99.90;;;;;;4917230;29;20501;-65
2022/11/27 05:19:19;;;;;;;4.20;3.80;;;-0.30;99.90;;;;;;4923856;29;20184;-65
2022/11/27 05:21:46;;;;;;;4.47;3.88;;;-0.30;99.90;;;;;;4947943;29;20189;-64
2022/11/27 05:24:12;;;;;;;6.80;4.03;;;-0.30;99.90;;;;;;4935312;29;20276;-65
2022/11/27 05:26:39;;;;;;;5.43;3.60;;;-0.30;99.90;;;;;;4935980;29;20204;-66
2022/11/27 05:29:05;;;;;;;7.07;4.53;;;-0.30;99.90;;;;;;4935799;29;20201;-65
2022/11/27 05:31:31;;;;;;;5.40;3.95;;;-0.30;99.90;;;;;;4940321;29;20212;-65
2022/11/27 05:33:57;;;;;;;4.40;3.13;;;-0.30;99.90;;;;;;4940189;29;20688;-67
2022/11/27 05:36:23;;;;;;;7.25;5.07;;;-0.30;99.90;;;;;;4935610;29;20178;-65
2022/11/27 05:38:48;;;;;;;4.20;3.57;;;-0.30;99.90;;;;;;4935992;29;20177;-66
2022/11/27 05:41:14;;;;;;;5.07;3.80;;;-0.30;99.90;;;;;;4936104;29;20178;-66
2022/11/27 05:43:40;;;;;;;3.87;2.90;;;-0.30;99.90;;;;;;4935343;29;20199;-66
2022/11/27 05:46:08;;;;;;;6.15;4.07;;;-0.30;99.90;;;;;;4949800;29;20500;-66
2022/11/27 05:48:35;;;;;;;5.00;4.13;;;-0.30;99.90;;;;;;4935433;29;20189;-65
2022/11/27 05:51:00;;;;;;;5.75;4.45;;;-0.30;99.90;;;;;;4935828;29;20177;-67
2022/11/27 05:53:26;;;;;;;6.80;5.03;;;-0.30;99.90;;;;;;4935275;29;20172;-66
2022/11/27 05:55:52;;;;;;;7.50;4.03;;;-0.30;99.90;;;;;;4935738;29;20310;-67
2022/11/27 05:58:18;;;;;;;5.73;5.23;;;-0.30;99.90;;;;;;4937598;29;20429;-66
2022/11/27 06:00:44;;;;;;;4.90;3.40;;;-0.30;99.90;;;;;;4935431;29;20472;-66
2022/11/27 06:03:09;;;;;;;5.55;5.05;;;-0.30;99.90;;;;;;4934630;29;20546;-66
2022/11/27 06:05:39;;;;;;;5.70;4.20;;;-0.30;99.90;;;;;;4934911;29;20219;-67
2022/11/27 06:08:04;;;;;;;4.97;4.47;;;-0.30;99.90;;;;;;4943693;29;20701;-66
2022/11/27 06:10:30;;;;;;;9.13;4.67;;;-0.30;99.90;;;;;;4935671;29;20259;-64
2022/11/27 06:12:56;;;;;;;5.50;4.80;;;-0.40;99.90;;;;;;4938844;29;20500;-66
2022/11/27 06:15:26;;;;;;;7.50;4.60;;;-0.40;99.90;;;;;;4953222;29;20478;-63
2022/11/27 06:17:51;;;;;;;3.90;3.55;;;-0.40;99.90;;;;;;4942734;29;20180;-64
2022/11/27 06:20:19;;;;;;;5.73;4.43;;;-0.50;99.90;;;;;;4939013;29;20185;-64
2022/11/27 06:22:44;;;;;;;4.95;4.00;;;-0.50;99.90;;;;;;4938573;29;20537;-64
2022/11/27 06:25:10;;;;;;;6.30;3.80;;;-0.50;99.90;;;;;;4938581;29;20307;-64
2022/11/27 06:27:36;;;;;;;4.03;3.33;;;-0.50;99.90;;;;;;4938671;29;20189;-65
2022/11/27 06:30:03;;;;;;;9.47;5.60;;;-0.50;99.90;;;;;;4939139;29;20417;-66
2022/11/27 06:32:29;;;;;;;3.90;3.60;;;-0.50;99.90;;;;;;4938220;29;20283;-65
2022/11/27 06:34:55;;;;;;;6.57;4.07;;;-0.50;99.90;;;;;;4939281;29;20196;-65
2022/11/27 06:37:21;;;;;;;7.20;3.90;;;-0.50;99.90;;;;;;4957641;29;20190;-66
2022/11/27 06:39:50;;;;;;;7.65;3.83;;;-0.50;99.90;;;;;;4958130;29;20245;-65
2022/11/27 06:42:16;;;;;;;6.38;3.90;;;-0.40;99.90;;;;;;4953616;29;20183;-66
2022/11/27 06:44:41;;;;;;;4.17;2.67;;;-0.50;99.90;;;;;;4957295;28;20556;-66
2022/11/27 06:47:07;;;;;;;4.53;4.13;;;-0.50;99.90;;;;;;4944120;29;20507;-66
2022/11/27 06:49:33;;;;;;;4.97;4.50;;;-0.50;99.90;;;;;;4951866;29;20175;-65
2022/11/27 06:51:59;;;;;;;5.53;4.03;;;-0.40;99.90;;;;;;4957546;29;20536;-66
2022/11/27 06:54:25;;;;;;;7.20;4.82;;;-0.40;99.90;;;;;;4956826;28;20438;-66
2022/11/27 06:56:50;;;;;;;4.93;4.53;;;-0.50;99.90;;;;;;4957566;29;20592;-66
2022/11/27 06:59:17;;;;;;;7.27;6.07;;;-0.50;99.90;;;;;;4945823;29;20228;-66
2022/11/27 07:01:42;;;;;;;5.43;4.85;;;-0.50;99.90;;;;;;4937966;29;20188;-64
2022/11/27 07:04:13;;;;;;;8.43;4.97;;;-0.50;99.90;;;;;;4940061;29;20699;-66
2022/11/27 07:06:40;;;;;;;5.72;4.80;;;-0.50;99.90;;;;;;4953290;29;20944;-66
2022/11/27 07:09:06;;;;;;;4.53;4.13;;;-0.40;99.90;;;;;;4947578;29;20214;-65
2022/11/27 07:11:32;;;;;;;12.93;3.60;;;-0.40;99.90;;;;;;4957556;29;20187;-66
2022/11/27 07:14:00;;;;;;;4.40;3.97;;;-0.40;99.90;;;;;;4956587;28;20211;-65
2022/11/27 07:16:28;;;;;;;6.57;4.18;;;-0.30;99.90;;;;;;4956897;29;20172;-64
2022/11/27 07:18:56;;;;;;;5.20;4.43;;;-0.30;99.90;;;;;;4939080;29;20184;-64
2022/11/27 07:21:22;;;;;;;3.72;3.45;;;-0.20;99.90;;;;;;4953057;29;20220;-64
2022/11/27 07:23:48;;;;;;;4.45;4.05;;;-0.10;99.90;;;;;;4937188;29;20723;-64
2022/11/27 07:26:23;;;;;;;7.07;5.03;;;0.00;99.90;;;;;;4937603;29;20356;-65
2022/11/27 07:28:48;;;;;;;4.80;4.30;;;0.10;99.90;;;;;;4943699;29;20180;-64
2022/11/27 07:31:20;;;;;;;3.27;3.00;;;0.30;99.90;;;;;;4956918;29;20256;-64
2022/11/27 07:33:46;;;;;;;3.80;3.50;;;0.50;99.90;;;;;;4950352;29;20198;-65
2022/11/27 07:36:14;;;;;;;5.03;4.50;;;0.60;99.90;;;;;;4937270;29;20188;-66
2022/11/27 07:38:40;;;;;;;6.30;5.25;;;0.70;99.90;;;;;;4937748;29;20178;-66
2022/11/27 07:41:06;;;;;;;6.10;5.60;;;0.80;99.90;;;;;;4937532;29;20705;-66
2022/11/27 07:43:33;;;;;;;7.55;5.45;;;0.90;99.90;;;;;;4936960;28;20189;-67
2022/11/27 07:46:03;;;;;;;5.28;4.50;;;1.00;99.90;;;;;;4937279;29;20685;-64
2022/11/27 07:48:29;;;;;;;5.88;5.38;;;1.00;99.90;;;;;;4937199;29;20278;-65
2022/11/27 07:50:54;;;;;;;6.23;4.53;;;1.00;99.90;;;;;;4936835;29;20201;-65
2022/11/27 07:53:20;;;;;;;5.20;4.60;;;1.10;99.90;;;;;;4936633;29;20208;-66
2022/11/27 07:55:46;;;;;;;8.80;5.47;;;1.10;99.90;;;;;;4954345;29;20185;-65
2022/11/27 07:58:11;;;;;;;6.13;5.47;;;1.10;99.90;;;;;;4956428;29;20173;-65
2022/11/27 08:00:38;;;;;;;7.93;6.20;;;1.20;99.90;;;;;;4956319;29;20177;-65
2022/11/27 08:03:03;;;;;;;5.90;5.30;;;1.30;99.90;;;;;;4928917;29;20642;-66
2022/11/27 08:05:34;;;;;;;10.10;5.90;;;1.30;99.90;;;;;;4936439;29;20301;-65
2022/11/27 08:08:02;;;;;;;7.20;6.50;;;1.40;99.90;;;;;;4919861;29;20212;-64
2022/11/27 08:10:29;;;;;;;7.07;5.57;;;1.40;99.90;;;;;;4951264;29;20557;-64
2022/11/27 08:12:54;;;;;;;13.15;8.38;;;1.50;99.90;;;;;;4936626;29;20177;-66
2022/11/27 08:15:20;;;;;;;10.67;7.30;;;1.90;99.90;;;;;;4936777;29;20677;-65
2022/11/27 08:17:46;;;;;;;10.17;6.37;;;2.30;99.90;;;;;;4936498;29;20510;-66
2022/11/27 08:20:12;;;;;;;9.02;6.95;;;2.60;99.90;;;;;;4936382;29;20182;-65
2022/11/27 08:22:39;;;;;;;10.77;8.17;;;3.00;99.90;;;;;;4936400;29;20185;-68
2022/11/27 08:25:05;;;;;;;9.50;6.88;;;3.70;99.90;;;;;;4950135;28;20200;-65
2022/11/27 08:27:32;;;;;;;12.90;7.43;;;4.40;99.90;;;;;;4953275;29;20186;-66
2022/11/27 08:29:58;;;;;;;9.10;8.18;;;5.10;99.90;;;;;;4951105;29;20272;-65
2022/11/27 08:32:24;;;;;;;12.27;9.05;;;5.60;99.90;;;;;;4937432;29;20178;-66
2022/11/27 08:34:49;;;;;;;8.57;7.17;;;6.30;99.90;;;;;;4935494;29;20614;-67
2022/11/27 08:37:15;;;;;;;8.63;7.60;;;7.20;99.90;;;;;;4936445;29;20542;-65
2022/11/27 08:39:40;;;;;;;6.37;5.73;;;8.00;99.90;;;;;;4936393;29;20223;-65
2022/11/27 08:42:06;;;;;;;6.33;5.73;;;8.80;99.90;;;;;;4936127;29;20712;-64
2022/11/27 08:44:31;;;;;;;6.30;5.77;;;9.10;99.90;;;;;;4935751;29;20539;-66
2022/11/27 08:46:57;;;;;;;6.60;6.00;;;9.10;99.90;;;;;;4936600;29;20200;-66
2022/11/27 08:49:23;;;;;;;8.27;7.47;;;9.50;99.90;;;;;;4936415;29;20173;-67
2022/11/27 08:51:48;;;;;;;8.53;7.73;;;10.10;99.90;;;;;;4936364;29;20171;-67
2022/11/27 08:54:14;;;;;;;9.80;7.63;;;10.60;99.90;;;;;;4935942;29;20226;-66
2022/11/27 08:56:39;;;;;;;7.73;7.13;;;11.10;99.90;;;;;;4935819;29;20557;-64
2022/11/27 08:59:05;;;;;;;8.30;7.60;;;11.40;99.90;;;;;;4936072;29;20185;-65
2022/11/27 09:01:31;;;;;;;9.73;8.77;;;11.90;99.90;;;;;;4940532;29;20196;-66
2022/11/27 09:03:58;;;;;;;13.30;10.30;;;12.20;99.90;;;;;;4938123;29;20241;-65
2022/11/27 09:06:30;;;;;;;16.90;13.50;;;12.30;99.90;;;;;;4935920;29;20524;-64
2022/11/27 09:08:57;;;;;;;9.20;8.30;;;12.50;99.90;;;;;;4935557;29;20458;-65
2022/11/27 09:11:22;;;;;;;7.60;7.00;;;12.90;99.90;;;;;;4939497;29;20481;-66
2022/11/27 09:13:48;;;;;;;7.27;6.67;;;13.20;99.90;;;;;;4954551;28;20484;-65
2022/11/27 09:16:16;;;;;;;6.80;6.20;;;13.60;99.90;;;;;;4955456;29;20180;-66
2022/11/27 09:18:48;;;;;;;8.80;7.20;;;14.10;99.90;;;;;;4955203;29;20753;-66
2022/11/27 09:21:15;;;;;;;6.47;5.90;;;14.40;99.90;;;;;;4952861;29;20420;-67
2022/11/27 09:23:41;;;;;;;7.27;6.57;;;14.50;99.90;;;;;;4935279;29;20811;-66
2022/11/27 09:26:12;;;;;;;6.17;5.57;;;14.60;99.90;;;;;;4935909;28;20650;-65
2022/11/27 09:28:39;;;;;;;7.00;6.40;;;14.90;99.80;;;;;;4935483;29;20204;-66
2022/11/27 09:31:08;;;;;;;7.80;6.70;;;15.00;98.80;;;;;;4935782;29;20408;-67
2022/11/27 09:33:36;;;;;;;6.13;5.07;;;15.10;98.00;;;;;;4935292;29;20396;-67
2022/11/27 09:36:05;;;;;;;6.30;5.70;;;15.30;97.30;;;;;;4935855;29;20452;-67
2022/11/27 09:38:31;;;;;;;5.60;5.03;;;15.50;97.40;;;;;;4932672;29;20429;-68
2022/11/27 09:41:05;;;;;;;4.93;4.53;;;15.70;96.20;;;;;;4941167;29;20424;-67
2022/11/27 09:43:34;;;;;;;5.27;4.83;;;15.80;95.10;;;;;;4954800;28;20169;-68
2022/11/27 09:46:10;;;;;;;5.87;5.37;;;15.80;93.30;;;;;;4955985;28;20531;-66
2022/11/27 09:48:40;;;;;;;7.03;5.30;;;16.00;94.10;;;;;;4956829;29;20399;-68
2022/11/27 09:51:21;;;;;;;5.07;4.57;;;15.70;92.60;;;;;;4958665;29;20906;-66
2022/11/27 09:53:51;;;;;;;6.00;5.43;;;15.20;93.60;;;;;;4943570;29;20444;-66
2022/11/27 09:56:19;;;;;;;5.50;5.00;;;14.70;94.80;;;;;;4939685;29;20441;-64
2022/11/27 09:58:49;;;;;;;5.20;4.70;;;14.40;95.90;;;;;;4954781;29;20421;-67
2022/11/27 10:01:23;;;;;;;4.97;4.60;;;14.30;96.10;;;;;;4947159;29;20476;-65
2022/11/27 10:03:48;;;;;;;5.60;5.20;;;14.10;96.10;;;;;;4938427;29;20957;-67
2022/11/27 10:06:33;;;;;;;6.50;5.07;;;14.40;96.10;;;;;;4938877;29;20472;-65
2022/11/27 10:09:05;;;;;;;4.53;3.97;;;14.70;96.00;;;;;;4956286;29;20267;-64
2022/11/27 10:11:31;;;;;;;4.20;3.80;;;14.80;96.90;;;;;;4958177;29;20477;-67
2022/11/27 10:14:22;;;;;;;4.67;4.17;;;15.20;95.50;;;;;;4957595;28;21019;-66
2022/11/27 10:17:14;;;;;;;5.20;4.80;;;15.40;94.70;;;;;;4944503;29;20200;-70
2022/11/27 10:20:27;;;;;;;5.10;4.70;;;15.60;93.20;;;;;;4939396;29;20422;-66
2022/11/27 10:23:02;;;;;;;4.20;3.80;;;15.20;93.50;;;;;;4932722;29;20461;-68
2022/11/27 10:25:39;;;;;;;4.83;3.80;;;14.40;93.90;;;;;;4944726;29;20535;-67
2022/11/27 10:28:15;;;;;;;4.03;3.37;;;13.80;94.00;;;;;;4954508;29;20428;-66
2022/11/27 10:30:57;;;;;;;3.70;3.40;;;13.10;94.80;;;;;;4938689;29;20415;-65
2022/11/27 10:33:49;;;;;;;4.33;3.93;;;12.50;96.00;;;;;;4949696;28;20411;-67
2022/11/27 10:36:30;;;;;;;4.57;4.17;;;12.10;97.50;;;;;;4957825;29;20445;-67
2022/11/27 10:38:58;;;;;;;4.57;4.10;;;11.90;98.80;;;;;;4957703;29;20408;-67
2022/11/27 10:41:29;;;;;;;4.23;3.77;;;12.10;99.90;;;;;;4941017;29;20516;-67
2022/11/27 10:43:59;;;;;;;3.50;3.20;;;12.50;99.70;;;;;;4945509;29;20449;-67
2022/11/27 10:46:28;;;;;;;3.90;3.60;;;12.70;99.50;;;;;;4938133;29;20423;-66
2022/11/27 10:48:54;;;;;;;3.60;3.00;;;12.90;99.50;;;;;;4938288;29;20430;-67
2022/11/27 10:51:33;;;;;;;4.10;3.80;;;13.00;99.10;;;;;;4938468;29;20903;-66
2022/11/27 10:54:02;;;;;;;5.17;4.00;;;13.10;98.80;;;;;;4938795;29;20212;-64
2022/11/27 10:56:54;;;;;;;3.73;3.40;;;13.20;98.60;;;;;;4937655;29;20433;-65
2022/11/27 11:00:04;;;;;;;3.70;3.40;;;13.10;98.40;;;;;;4939355;29;20426;-65
2022/11/27 11:02:37;;;;;;;4.00;3.27;;;12.90;98.40;;;;;;4932772;29;20920;-63
2022/11/27 11:05:30;;;;;;;5.33;3.97;;;12.60;98.00;;;;;;4943773;29;20496;-65
2022/11/27 11:08:05;;;;;;;3.90;3.60;;;12.20;97.40;;;;;;4955852;29;20428;-64
2022/11/27 11:10:43;;;;;;;4.83;4.33;;;11.60;98.10;;;;;;4957364;29;20488;-64
2022/11/27 11:13:31;;;;;;;3.60;3.30;;;11.00;99.40;;;;;;4956673;29;20382;-67
2022/11/27 11:16:05;;;;;;;4.80;3.97;;;10.50;99.90;;;;;;4944737;29;20432;-64
2022/11/27 11:18:34;;;;;;;4.33;3.00;;;10.30;99.90;;;;;;4937927;29;20759;-65
2022/11/27 11:21:02;;;;;;;4.37;4.00;;;10.10;99.90;;;;;;4949394;29;21178;-65
2022/11/27 11:23:31;;;;;;;5.10;4.60;;;10.10;99.90;;;;;;4937798;29;20435;-66
2022/11/27 11:26:04;;;;;;;4.32;3.92;;;9.80;99.90;;;;;;4937644;29;20631;-63
2022/11/27 11:28:32;;;;;;;3.72;3.40;;;9.70;99.90;;;;;;4952186;28;20641;-66
2022/11/27 11:31:07;;;;;;;3.03;2.83;;;9.60;99.90;;;;;;4937218;29;20193;-62
2022/11/27 11:33:48;;;;;;;3.13;2.47;;;9.60;99.90;;;;;;4954010;28;20251;-65
2022/11/27 11:36:14;;;;;;;2.90;2.65;;;9.70;99.90;;;;;;4956534;29;20181;-68
2022/11/27 11:38:45;;;;;;;2.63;2.42;;;9.60;99.90;;;;;;4956718;29;20165;-65
2022/11/27 11:41:12;;;;;;;1.85;1.65;;;9.50;99.90;;;;;;4956804;29;20188;-65
2022/11/27 11:43:38;;;;;;;1.27;1.27;;;9.50;99.90;;;;;;4937983;29;20245;-65
2022/11/27 11:46:21;;;;;;;2.50;2.28;;;9.50;99.90;;;;;;4937163;29;20213;-63
2022/11/27 11:48:57;;;;;;;1.92;1.65;;;9.40;99.90;;;;;;4920350;29;20658;-64
2022/11/27 11:51:41;;;;;;;1.60;1.50;;;9.30;99.90;;;;;;4937375;29;20177;-65
2022/11/27 11:54:32;;;;;;;1.88;1.67;;;9.40;99.90;;;;;;4929944;29;20543;-65
2022/11/27 11:57:01;;;;;;;1.85;1.75;;;9.40;99.90;;;;;;4937882;29;20201;-65
2022/11/27 11:59:41;;;;;;;1.45;1.35;;;9.30;99.90;;;;;;4956541;29;20192;-66
2022/11/27 12:02:21;;;;;;;1.80;1.63;;;9.40;99.90;;;;;;4956562;29;20192;-65
2022/11/27 12:05:18;;;;;;;1.50;1.40;;;9.40;99.90;;;;;;4953635;29;20734;-65
2022/11/27 12:08:21;;;;;;;3.05;1.42;;;9.50;99.90;;;;;;4951414;29;20173;-64
2022/11/27 12:11:00;;;;;;;1.60;1.50;;;9.50;99.90;;;;;;4936719;29;20180;-65
2022/11/27 12:14:01;;;;;;;1.60;1.40;;;9.60;99.90;;;;;;4926440;28;20176;-66
2022/11/27 12:17:00;;;;;;;1.70;1.30;;;9.60;99.90;;;;;;4952351;29;20188;-65
2022/11/27 12:19:41;;;;;;;1.30;1.30;;;9.70;99.90;;;;;;4953914;29;20173;-66
2022/11/27 12:22:07;;;;;;;1.90;1.80;;;9.70;99.90;;;;;;4948066;29;20193;-65
2022/11/27 12:25:09;;;;;;;1.50;1.50;;;9.70;99.90;;;;;;4955526;28;20681;-65
2022/11/27 12:27:59;;;;;;;4.10;1.40;;;9.70;99.90;;;;;;4938640;29;20168;-67
2022/11/27 12:30:54;;;;;;;1.98;1.85;;;9.80;99.90;;;;;;4955067;29;20176;-65
2022/11/27 12:33:31;;;;;;;1.48;1.38;;;9.80;99.90;;;;;;4953669;28;20588;-66
2022/11/27 12:36:15;;;;;;;1.95;1.48;;;9.80;99.90;;;;;;4944798;29;20184;-66
2022/11/27 12:39:22;;;;;;;1.83;1.67;;;9.90;99.90;;;;;;4955622;29;20540;-67
2022/11/27 12:42:07;;;;;;;2.10;1.90;;;9.90;99.90;;;;;;4955219;29;20176;-63
2022/11/27 12:45:10;;;;;;;3.22;1.77;;;10.00;99.90;;;;;;4955141;28;20217;-66
2022/11/27 12:47:43;;;;;;;1.63;1.52;;;9.90;99.90;;;;;;4936093;29;20255;-66
2022/11/27 12:50:22;;;;;;;1.83;1.65;;;10.00;99.90;;;;;;4939054;29;20721;-64
2022/11/27 12:53:13;;;;;;;2.28;2.08;;;10.00;99.90;;;;;;4945849;29;20181;-66
2022/11/27 12:55:42;;;;;;;2.00;1.52;;;10.10;99.90;;;;;;4936143;29;20193;-66
2022/11/27 12:58:22;;;;;;;1.67;1.58;;;10.20;99.90;;;;;;4927061;29;20176;-67
2022/11/27 13:00:49;;;;;;;1.52;1.50;;;10.20;99.70;;;;;;4936145;29;20185;-66
2022/11/27 13:03:20;;;;;;;2.08;1.88;;;10.20;99.50;;;;;;4935611;29;20173;-65
2022/11/27 13:05:52;;;;;;;2.03;1.83;;;10.20;99.10;;;;;;4935672;29;20223;-67
2022/11/27 13:08:24;;;;;;;1.52;1.45;;;10.20;98.30;;;;;;4935853;29;20170;-66
2022/11/27 13:10:55;;;;;;;1.60;1.45;;;10.20;98.40;;;;;;4942392;29;20195;-65
2022/11/27 13:13:39;;;;;;;1.98;1.85;;;10.10;98.60;;;;;;4952824;28;20247;-65
2022/11/27 13:16:37;;;;;;;1.92;1.70;;;10.10;98.90;;;;;;4939373;29;20185;-66
2022/11/27 13:19:17;;;;;;;1.65;1.55;;;10.10;98.70;;;;;;4938740;29;20189;-65
2022/11/27 13:21:45;;;;;;;0.98;0.98;;;10.10;98.70;;;;;;4939891;29;20264;-65
2022/11/27 13:24:12;;;;;;;2.80;1.60;;;10.10;98.60;;;;;;4939145;29;20194;-64
2022/11/27 13:26:56;;;;;;;1.77;1.60;;;10.00;98.80;;;;;;4939642;29;20571;-66
2022/11/27 13:29:36;;;;;;;1.20;1.20;;;10.00;98.80;;;;;;4939712;29;20219;-67
2022/11/27 13:32:04;;;;;;;1.80;1.70;;;10.10;98.60;;;;;;4940558;29;20171;-65
2022/11/27 13:34:33;;;;;;;1.45;1.30;;;10.10;98.40;;;;;;4942529;29;20223;-66
2022/11/27 13:37:05;;;;;;;1.35;1.25;;;10.10;98.10;;;;;;4939242;29;20224;-65
2022/11/27 13:39:37;;;;;;;1.10;1.10;;;10.20;97.80;;;;;;4939508;29;20184;-66
2022/11/27 13:42:11;;;;;;;1.13;1.02;;;10.20;97.70;;;;;;4939489;29;20519;-64
2022/11/27 13:44:43;;;;;;;1.30;1.30;;;10.20;97.80;;;;;;4941008;29;20263;-67
2022/11/27 13:47:14;;;;;;;1.50;1.40;;;10.20;97.90;;;;;;4939413;29;20178;-66
2022/11/27 13:49:42;;;;;;;1.23;1.10;;;10.30;97.60;;;;;;4939504;29;20261;-66
2022/11/27 13:52:16;;;;;;;1.58;1.48;;;10.30;97.60;;;;;;4942464;29;20661;-64
2022/11/27 13:54:57;;;;;;;1.23;1.10;;;10.20;97.10;;;;;;4939013;29;20662;-66
2022/11/27 13:57:24;;;;;;;1.15;1.05;;;10.20;97.00;;;;;;4939221;29;20177;-65
2022/11/27 14:00:05;;;;;;;1.40;1.10;;;10.20;97.10;;;;;;4938687;29;20182;-66
2022/11/27 14:02:50;;;;;;;1.30;1.20;;;10.20;96.60;;;;;;4955137;29;20266;-67
2022/11/27 14:05:21;;;;;;;1.25;1.17;;;10.20;96.70;;;;;;4928058;29;20264;-65
2022/11/27 14:07:53;;;;;;;1.38;1.27;;;10.20;96.30;;;;;;4952890;29;20181;-66
2022/11/27 14:10:25;;;;;;;0.90;0.90;;;10.20;96.20;;;;;;4949693;29;20211;-65
2022/11/27 14:13:07;;;;;;;1.35;1.25;;;10.10;96.10;;;;;;4943665;29;20173;-67
2022/11/27 14:15:38;;;;;;;1.00;1.00;;;10.10;96.00;;;;;;4955960;28;20646;-66
2022/11/27 14:18:16;;;;;;;1.30;1.20;;;10.10;96.00;;;;;;4955880;29;20180;-67
2022/11/27 14:20:55;;;;;;;1.58;1.48;;;10.00;96.20;;;;;;4951667;29;20216;-67
2022/11/27 14:23:48;;;;;;;1.30;1.30;;;10.00;96.20;;;;;;4942579;29;20208;-65
2022/11/27 14:26:14;;;;;;;1.40;1.30;;;10.00;96.10;;;;;;4950580;29;20208;-65
2022/11/27 14:28:43;;;;;;;2.30;2.10;;;10.00;95.90;;;;;;4938079;29;20507;-65
2022/11/27 14:31:28;;;;;;;3.67;3.38;;;10.00;95.60;;;;;;4939461;29;20181;-65
2022/11/27 14:33:54;;;;;;;2.63;2.10;;;9.90;96.30;;;;;;4952144;29;20224;-67
2022/11/27 14:36:31;;;;;;;1.43;1.40;;;9.90;96.30;;;;;;4951334;29;20204;-64
2022/11/27 14:38:57;;;;;;;2.72;2.53;;;9.80;96.20;;;;;;4940276;29;20556;-64
2022/11/27 14:41:24;;;;;;;1.92;1.83;;;9.80;95.90;;;;;;4949367;29;20184;-67
2022/11/27 14:44:04;;;;;;;2.75;2.55;;;9.70;96.00;;;;;;4950287;29;20228;-66
2022/11/27 14:46:32;;;;;;;3.45;2.42;;;9.70;96.20;;;;;;4938052;29;20256;-65
2022/11/27 14:48:58;;;;;;;1.95;1.85;;;9.60;96.40;;;;;;4937993;29;20177;-65
2022/11/27 14:51:31;;;;;;;2.73;2.10;;;9.60;96.40;;;;;;4937999;29;20170;-65
2022/11/27 14:54:25;;;;;;;3.03;2.75;;;9.50;96.40;;;;;;4940516;29;20193;-63
2022/11/27 14:56:51;;;;;;;1.73;1.63;;;9.40;96.60;;;;;;4939726;29;20621;-65
2022/11/27 14:59:20;;;;;;;1.98;1.60;;;9.40;96.40;;;;;;4951851;29;20682;-67
2022/11/27 15:02:05;;;;;;;2.03;1.92;;;9.30;96.30;;;;;;4945986;29;20173;-66
2022/11/27 15:04:36;;;;;;;2.20;2.00;;;9.30;96.30;;;;;;4937068;29;20196;-66
2022/11/27 15:07:12;;;;;;;2.95;1.92;;;9.20;96.40;;;;;;4953793;29;20195;-65
2022/11/27 15:09:44;;;;;;;2.20;1.88;;;9.10;96.60;;;;;;4956795;29;20215;-65
2022/11/27 15:12:35;;;;;;;3.60;3.30;;;9.00;96.70;;;;;;4953159;29;20176;-63
2022/11/27 15:15:08;;;;;;;2.10;1.90;;;9.00;97.00;;;;;;4939346;29;20230;-64
2022/11/27 15:17:38;;;;;;;1.63;1.52;;;8.90;97.00;;;;;;4949320;29;20192;-67
2022/11/27 15:20:18;;;;;;;1.60;1.50;;;8.90;97.30;;;;;;4937404;29;20185;-66
2022/11/27 15:22:52;;;;;;;1.80;1.70;;;8.80;97.40;;;;;;4941703;29;20187;-64
2022/11/27 15:25:37;;;;;;;1.75;1.60;;;8.70;97.40;;;;;;4950322;28;20590;-64
2022/11/27 15:28:25;;;;;;;2.53;2.33;;;8.60;97.70;;;;;;4956536;29;20637;-64
2022/11/27 15:30:51;;;;;;;3.70;3.40;;;8.50;97.70;;;;;;4928635;29;20664;-65
2022/11/27 15:33:26;;;;;;;3.45;1.70;;;8.50;98.00;;;;;;4942064;29;20724;-65
2022/11/27 15:35:53;;;;;;;3.67;3.17;;;8.40;98.10;;;;;;4956559;29;20184;-65
2022/11/27 15:38:19;;;;;;;1.60;1.50;;;8.40;98.30;;;;;;4946439;29;20178;-65
2022/11/27 15:40:57;;;;;;;1.90;1.70;;;8.40;98.50;;;;;;4940480;29;20205;-65
2022/11/27 15:43:22;;;;;;;2.47;2.20;;;8.30;98.50;;;;;;4945846;28;20173;-66
2022/11/27 15:45:49;;;;;;;1.97;1.87;;;8.20;98.70;;;;;;4943037;29;20267;-67
2022/11/27 15:48:18;;;;;;;2.67;2.40;;;8.20;98.70;;;;;;4931610;29;20177;-66
2022/11/27 15:50:43;;;;;;;2.30;1.83;;;8.20;98.70;;;;;;4929689;29;20185;-66
2022/11/27 15:53:09;;;;;;;2.27;2.07;;;8.20;98.70;;;;;;4917916;29;20170;-65
2022/11/27 15:55:35;;;;;;;1.77;1.63;;;8.10;99.20;;;;;;4921899;29;20991;-65
2022/11/27 15:58:01;;;;;;;2.55;2.30;;;8.10;99.10;;;;;;4937054;29;20309;-66
2022/11/27 16:00:27;;;;;;;2.87;2.60;;;8.10;99.40;;;;;;4936966;29;20623;-66
2022/11/27 16:02:53;;;;;;;14.20;8.07;;;8.10;99.80;;;;;;4936583;29;20508;-66
2022/11/27 16:05:19;;;;;;;8.20;4.63;;;8.00;99.90;;;;;;4936818;29;20208;-64
2022/11/27 16:07:45;;;;;;;2.55;2.35;;;8.00;99.90;;;;;;4936861;29;20184;-67
2022/11/27 16:10:10;;;;;;;3.03;2.77;;;7.90;99.90;;;;;;4936549;29;20176;-65
2022/11/27 16:12:37;;;;;;;3.40;3.00;;;7.90;99.90;;;;;;4935941;29;20201;-67
2022/11/27 16:15:05;;;;;;;3.85;2.70;;;7.90;99.90;;;;;;4936184;29;20464;-65
2022/11/27 16:17:30;;;;;;;2.65;2.35;;;7.90;99.90;;;;;;4936488;29;20232;-66
2022/11/27 16:19:56;;;;;;;2.60;2.40;;;7.90;99.90;;;;;;4936607;29;20174;-65
2022/11/27 16:22:21;;;;;;;2.83;2.60;;;7.90;99.90;;;;;;4936568;29;20554;-64
2022/11/27 16:24:47;;;;;;;3.33;3.03;;;7.90;99.90;;;;;;4936386;29;20216;-66
2022/11/27 16:27:13;;;;;;;4.60;3.07;;;7.90;99.90;;;;;;4936888;29;20566;-66
2022/11/27 16:29:38;;;;;;;4.40;2.30;;;7.80;99.90;;;;;;4948995;29;20180;-65
2022/11/27 16:32:04;;;;;;;2.70;2.50;;;7.80;99.90;;;;;;4942689;29;20173;-65
2022/11/27 16:34:30;;;;;;;4.07;3.65;;;7.80;99.90;;;;;;4940111;29;20565;-68
2022/11/27 16:36:56;;;;;;;3.60;3.30;;;7.80;99.90;;;;;;4936538;29;20187;-68
2022/11/27 16:39:21;;;;;;;3.53;3.33;;;7.80;99.90;;;;;;4936931;29;20180;-67
2022/11/27 16:41:47;;;;;;;4.70;3.10;;;7.70;99.90;;;;;;4936829;29;20185;-66
2022/11/27 16:44:13;;;;;;;3.37;3.07;;;7.60;99.90;;;;;;4945936;28;20200;-67
2022/11/27 16:46:40;;;;;;;4.65;3.00;;;7.60;99.90;;;;;;4937478;29;20178;-66
2022/11/27 16:49:06;;;;;;;4.88;3.45;;;7.50;99.90;;;;;;4948269;29;20645;-66
2022/11/27 16:51:33;;;;;;;3.97;3.45;;;7.50;99.90;;;;;;4946210;29;20176;-66
2022/11/27 16:54:02;;;;;;;4.40;3.30;;;7.40;99.90;;;;;;4948409;28;20200;-66
2022/11/27 16:56:29;;;;;;;5.63;3.70;;;7.40;99.90;;;;;;4946839;29;20579;-65
2022/11/27 16:58:55;;;;;;;4.85;2.95;;;7.30;99.90;;;;;;4948510;29;20275;-64
2022/11/27 17:01:35;;;;;;;4.40;4.00;;;7.20;99.90;;;;;;4941611;29;20197;-65
2022/11/27 17:04:07;;;;;;;3.55;3.15;;;7.30;99.90;;;;;;4947015;28;20202;-67
2022/11/27 17:06:34;;;;;;;3.80;3.40;;;7.20;99.90;;;;;;4935645;29;20232;-67
2022/11/27 17:09:02;;;;;;;4.07;3.63;;;7.20;99.90;;;;;;4935240;29;20181;-67
2022/11/27 17:11:32;;;;;;;5.05;4.18;;;7.10;99.90;;;;;;4935855;29;20191;-67
2022/11/27 17:14:00;;;;;;;5.35;3.70;;;7.10;99.90;;;;;;4935289;29;20272;-67
2022/11/27 17:16:26;;;;;;;6.03;3.95;;;7.10;99.90;;;;;;4942218;29;20227;-67
2022/11/27 17:18:52;;;;;;;5.05;3.30;;;7.00;99.90;;;;;;4955062;29;20172;-65
2022/11/27 17:21:23;;;;;;;4.93;4.50;;;7.00;99.90;;;;;;4946965;29;20652;-68
2022/11/27 17:23:49;;;;;;;6.60;3.88;;;7.00;99.90;;;;;;4935156;29;20215;-64
2022/11/27 17:26:18;;;;;;;4.00;3.60;;;7.00;99.90;;;;;;4945077;29;20309;-67
2022/11/27 17:28:44;;;;;;;4.75;4.35;;;6.80;99.90;;;;;;4954857;29;20165;-65
2022/11/27 17:31:12;;;;;;;4.43;3.85;;;6.80;99.90;;;;;;4953975;29;20172;-67
2022/11/27 17:33:37;;;;;;;4.55;3.85;;;6.80;99.90;;;;;;4954385;28;20165;-64
2022/11/27 17:36:03;;;;;;;7.57;4.40;;;6.70;99.90;;;;;;4952948;29;20179;-68
2022/11/27 17:38:29;;;;;;;5.10;4.20;;;6.70;99.90;;;;;;4942753;29;20433;-64
2022/11/27 17:41:00;;;;;;;3.63;3.33;;;6.60;99.90;;;;;;4944941;29;20830;-67
2022/11/27 17:43:27;;;;;;;5.22;3.95;;;6.60;99.90;;;;;;4935226;29;20182;-68
2022/11/27 17:45:52;;;;;;;4.32;3.47;;;6.50;99.90;;;;;;4936451;29;20239;-65
2022/11/27 17:48:18;;;;;;;6.60;4.43;;;6.40;99.90;;;;;;4934969;29;20207;-65
2022/11/27 17:50:43;;;;;;;5.53;3.87;;;6.50;99.90;;;;;;4937694;29;20269;-65
2022/11/27 17:53:09;;;;;;;4.77;3.80;;;6.40;99.90;;;;;;4954788;29;20183;-67
2022/11/27 17:55:35;;;;;;;6.40;4.77;;;6.40;99.90;;;;;;4954435;28;20207;-66
2022/11/27 17:58:00;;;;;;;6.73;4.57;;;6.40;99.90;;;;;;4939748;29;20192;-66
2022/11/27 18:00:26;;;;;;;5.73;4.63;;;6.30;99.90;;;;;;4952132;29;20526;-66
2022/11/27 18:02:52;;;;;;;7.83;4.50;;;6.30;99.90;;;;;;4946156;29;20196;-65
2022/11/27 18:05:17;;;;;;;6.40;4.90;;;6.20;99.90;;;;;;4935090;29;20213;-66
2022/11/27 18:07:43;;;;;;;4.43;3.83;;;6.20;99.90;;;;;;4937236;29;20187;-65
2022/11/27 18:10:09;;;;;;;5.70;4.50;;;6.20;99.90;;;;;;4947030;29;20531;-64
2022/11/27 18:12:34;;;;;;;5.45;3.88;;;6.20;99.90;;;;;;4948742;29;20179;-65
2022/11/27 18:15:00;;;;;;;5.77;4.13;;;6.20;99.90;;;;;;4939012;29;20199;-67